ムルマンスク の空港の天気 - METARとTAF

ムルマンスク空港 ( ULMM / MMK ) - ロシア ムルマンスク
飛行場実況気象(Metar)
観測時間10/23 16:00 MSK (10/23 13:00 UTC)
風向・風速西南西 1m/s
視程10km以上
天気現象
少しの雲 雲底高度 210m
全天の8割程度の雲 雲底高度 940m
気温0℃
湿度86%
気圧1028hPa
METARULMM 231300Z 24001MPS 9999 FEW007 BKN031 00/M02 Q1028 R31/290150 NOSIG RMK OBST OBSC QFE764
過去の天気等 Google飛行場航空写真 Wunderground天気予報

過去48時間のMETAR

飛行場予報(TAF)
発表時間: 10/23 13:55 MSK (10/23 10:55 UTC)
予報対象時間: 23日15時 MSK ~ 24日15時 MSK
風向・風速西 3m/s 瞬間風速 8m/s
視程10km以上
全天の8割程度の雲 雲底高度 340m
23日15時 MSK ~ 23日21時 MSK に一時的に
風向・風速西南西 2m/s
視程3,100m
天気現象弱いしゅう雪雨
全天の8割程度の積乱雲 雲底高度 340m
23日21時 MSK ~ 24日9時 MSK に一時的に
風向・風速不定 1m/s
視程1,000m
天気現象弱いしゅう雪雨 もや
全天の4割程度の雲 雲底高度 150m
全天の8割程度の積乱雲 雲底高度 340m
24日9時 MSK ~ 24日15時 MSK に一時的に
風向・風速西 4m/s 瞬間風速 9m/s
視程3,100m
天気現象弱いしゅう雪雨
全天の8割程度の積乱雲 雲底高度 340m
TAF ULMM 231055Z 2312/2412 28003G08MPS 9999 BKN011
TEMPO 2312/2318 24002MPS 3100 -SHSNRA BKN011CB
TEMPO 2318/2406 VRB01MPS 1000 -SHSNRA BR SCT005 BKN011CB
TEMPO 2406/2412 26004G09MPS 3100 -SHSNRA BKN011CB